createdAt,value
2019-03-17T00:00:19.876Z,7.08
2019-03-17T00:02:49.233Z,7.05
2019-03-17T00:05:18.523Z,5.03
2019-03-17T00:07:47.818Z,6.70
2019-03-17T00:10:17.147Z,6.50
2019-03-17T00:12:46.457Z,10.03
2019-03-17T00:15:15.789Z,6.08
2019-03-17T00:17:45.111Z,9.08
2019-03-17T00:20:14.527Z,6.15
2019-03-17T00:22:43.858Z,6.17
2019-03-17T00:25:13.265Z,6.33
2019-03-17T00:27:42.558Z,4.83
2019-03-17T00:30:13.391Z,10.18
2019-03-17T00:32:42.727Z,6.72
2019-03-17T00:35:12.015Z,6.65
2019-03-17T00:37:41.310Z,7.08
2019-03-17T00:40:12.056Z,7.83
2019-03-17T00:42:41.346Z,7.47
2019-03-17T00:45:12.066Z,7.70
2019-03-17T00:47:41.675Z,6.42
2019-03-17T00:50:12.376Z,8.75
2019-03-17T00:52:41.603Z,13.05
2019-03-17T00:55:11.007Z,7.67
2019-03-17T00:57:40.297Z,5.05
2019-03-17T01:00:15.359Z,8.20
2019-03-17T01:02:44.684Z,4.97
2019-03-17T01:05:13.968Z,8.78
2019-03-17T01:07:43.261Z,7.30
2019-03-17T01:10:12.669Z,7.28
2019-03-17T01:12:44.769Z,5.65
2019-03-17T01:15:12.974Z,6.85
2019-03-17T01:17:42.313Z,6.37
2019-03-17T01:20:11.942Z,7.70
2019-03-17T01:22:41.232Z,5.83
2019-03-17T01:25:10.646Z,5.90
2019-03-17T01:27:39.934Z,7.60
2019-03-17T01:30:12.830Z,8.80
2019-03-17T01:32:42.171Z,8.80
2019-03-17T01:35:11.461Z,6.20
2019-03-17T01:37:40.748Z,8.55
2019-03-17T01:40:11.326Z,6.08
2019-03-17T01:42:43.284Z,5.35
2019-03-17T01:45:12.579Z,6.00
2019-03-17T01:47:41.928Z,8.73
2019-03-17T01:50:11.310Z,11.08
2019-03-17T01:52:40.589Z,7.55
2019-03-17T01:55:10.018Z,7.67
2019-03-17T01:57:42.219Z,6.90
2019-03-17T02:00:14.063Z,8.10
2019-03-17T02:02:43.366Z,6.08
2019-03-17T02:05:21.918Z,6.95
2019-03-17T02:07:43.806Z,7.83
2019-03-17T02:10:13.298Z,10.32
2019-03-17T02:12:42.576Z,8.38
2019-03-17T02:15:11.911Z,6.67
2019-03-17T02:17:41.213Z,8.48
2019-03-17T02:20:12.044Z,8.68
2019-03-17T02:22:41.401Z,8.00
2019-03-17T02:25:10.693Z,7.15
2019-03-17T02:27:39.984Z,9.58
2019-03-17T02:30:12.607Z,7.03
2019-03-17T02:32:41.990Z,7.83
2019-03-17T02:35:11.353Z,9.08
2019-03-17T02:37:40.701Z,8.33
2019-03-17T02:40:10.130Z,9.85
2019-03-17T02:42:39.490Z,11.33
2019-03-17T02:45:10.619Z,10.43
2019-03-17T02:47:39.946Z,10.45
2019-03-17T02:50:10.293Z,10.20
2019-03-17T02:52:39.634Z,6.65
2019-03-17T02:55:09.756Z,11.18
2019-03-17T02:57:39.039Z,9.23
2019-03-17T03:00:11.047Z,12.45
2019-03-17T03:02:40.362Z,9.90
2019-03-17T03:05:09.857Z,10.13
2019-03-17T03:07:39.225Z,7.75
2019-03-17T03:10:08.632Z,8.45
2019-03-17T03:12:37.920Z,8.28
2019-03-17T03:15:09.302Z,11.15
2019-03-17T03:17:38.584Z,8.43
2019-03-17T03:20:11.636Z,8.20
2019-03-17T03:22:40.973Z,7.58
2019-03-17T03:25:10.503Z,10.70
2019-03-17T03:27:39.811Z,7.12
2019-03-17T03:30:14.163Z,7.10
2019-03-17T03:32:43.454Z,9.45
2019-03-17T03:35:12.752Z,13.53
2019-03-17T03:37:42.088Z,13.08
2019-03-17T03:40:12.908Z,10.20
2019-03-17T03:42:42.186Z,6.92
2019-03-17T03:45:13.136Z,9.90
2019-03-17T03:47:42.444Z,6.78
2019-03-17T03:50:12.776Z,12.80
2019-03-17T03:52:42.104Z,6.90
2019-03-17T03:55:11.482Z,12.45
2019-03-17T03:57:40.819Z,10.00
2019-03-17T04:00:15.690Z,8.93
2019-03-17T04:02:45.582Z,9.43
2019-03-17T04:05:15.106Z,11.88
2019-03-17T04:07:44.900Z,8.43
2019-03-17T04:10:14.202Z,12.18
2019-03-17T04:12:43.720Z,6.20
2019-03-17T04:15:13.292Z,10.50
2019-03-17T04:17:42.581Z,11.15
2019-03-17T04:20:13.413Z,13.75
2019-03-17T04:22:42.805Z,9.58
2019-03-17T04:25:13.810Z,11.05
2019-03-17T04:27:43.114Z,12.95
2019-03-17T04:30:12.576Z,7.95
2019-03-17T04:32:41.863Z,15.85
2019-03-17T04:35:11.242Z,10.53
2019-03-17T04:37:40.566Z,18.02
2019-03-17T04:40:10.748Z,7.33
2019-03-17T04:42:40.120Z,9.95
2019-03-17T04:45:10.500Z,10.85
2019-03-17T04:47:40.070Z,8.63
2019-03-17T04:50:10.729Z,7.37
2019-03-17T04:52:40.033Z,10.20
2019-03-17T04:55:09.460Z,7.62
2019-03-17T04:57:38.756Z,11.97
2019-03-17T05:00:12.052Z,12.15
2019-03-17T05:02:41.604Z,8.08
2019-03-17T05:05:11.444Z,11.57
2019-03-17T05:07:40.770Z,8.15
2019-03-17T05:10:11.223Z,12.58
2019-03-17T05:12:40.513Z,8.78
2019-03-17T05:15:12.638Z,9.18
2019-03-17T05:17:42.219Z,11.28
2019-03-17T05:20:11.857Z,7.30
2019-03-17T05:22:41.201Z,10.82
2019-03-17T05:25:10.558Z,9.43
2019-03-17T05:27:39.848Z,7.05
2019-03-17T05:30:11.966Z,9.20
2019-03-17T05:32:41.253Z,8.13
2019-03-17T05:35:10.607Z,7.83
2019-03-17T05:37:39.962Z,7.45
2019-03-17T05:40:11.265Z,8.18
2019-03-17T05:42:41.232Z,10.18
2019-03-17T05:45:10.844Z,7.40
2019-03-17T05:47:40.100Z,8.45
2019-03-17T05:50:11.184Z,9.90
2019-03-17T05:52:40.533Z,10.13
2019-03-17T05:55:10.732Z,8.23
2019-03-17T05:57:40.050Z,11.40
2019-03-17T06:00:14.070Z,8.93
2019-03-17T06:02:43.638Z,7.10
2019-03-17T06:05:12.932Z,6.62
2019-03-17T06:07:42.715Z,7.95
2019-03-17T06:10:12.092Z,7.65
2019-03-17T06:12:41.385Z,6.28
2019-03-17T06:15:12.347Z,8.23
2019-03-17T06:17:41.627Z,8.65
2019-03-17T06:20:13.063Z,8.93
2019-03-17T06:22:42.377Z,8.60
2019-03-17T06:25:11.806Z,7.78
2019-03-17T06:27:41.083Z,7.60
2019-03-17T06:30:13.318Z,11.10
2019-03-17T06:32:42.671Z,7.45
2019-03-17T06:35:12.101Z,8.08
2019-03-17T06:37:41.502Z,7.25
2019-03-17T06:40:16.995Z,8.00
2019-03-17T06:42:46.310Z,8.95
2019-03-17T06:45:15.635Z,7.00
2019-03-17T06:47:44.920Z,7.70
2019-03-17T06:50:15.670Z,6.75
2019-03-17T06:52:44.944Z,6.30
2019-03-17T06:55:20.278Z,6.25
2019-03-17T06:57:49.583Z,4.67
2019-03-17T07:00:18.994Z,10.00
2019-03-17T07:02:48.288Z,4.72
2019-03-17T07:05:17.683Z,5.55
2019-03-17T07:07:47.260Z,6.40
2019-03-17T07:10:19.267Z,4.83
2019-03-17T07:12:49.242Z,8.60
2019-03-17T07:15:18.589Z,5.20
2019-03-17T07:17:47.897Z,7.33
2019-03-17T07:20:17.227Z,4.95
2019-03-17T07:22:46.507Z,7.72
2019-03-17T07:25:15.794Z,5.95
2019-03-17T07:27:45.129Z,4.87
2019-03-17T07:30:16.429Z,3.27
2019-03-17T07:32:45.765Z,4.75
2019-03-17T07:35:15.107Z,2.72
2019-03-17T07:37:56.271Z,4.65
2019-03-17T07:40:15.398Z,3.90
2019-03-17T07:42:44.732Z,6.20
2019-03-17T07:45:14.014Z,4.85
2019-03-17T07:47:43.298Z,3.20
2019-03-17T07:50:13.983Z,2.40
2019-03-17T07:52:43.271Z,2.02
2019-03-17T07:55:12.859Z,4.22
2019-03-17T07:57:42.189Z,4.78
2019-03-17T08:00:13.897Z,3.22
2019-03-17T08:02:43.172Z,6.62
2019-03-17T08:05:12.502Z,6.50
2019-03-17T08:07:42.028Z,6.53
2019-03-17T08:10:15.010Z,5.42
2019-03-17T08:12:44.342Z,5.50
2019-03-17T08:15:15.626Z,5.15
2019-03-17T08:17:44.908Z,4.33
2019-03-17T08:20:15.385Z,7.42
2019-03-17T08:22:44.670Z,5.17
2019-03-17T08:25:14.025Z,4.40
2019-03-17T08:27:43.357Z,5.55
2019-03-17T08:30:17.461Z,4.58
2019-03-17T08:32:46.750Z,4.22
2019-03-17T08:35:16.549Z,4.87
2019-03-17T08:37:45.833Z,7.15
2019-03-17T08:40:19.340Z,4.42
2019-03-17T08:42:48.644Z,7.17
2019-03-17T08:45:17.965Z,5.60
2019-03-17T08:47:57.116Z,4.97
2019-03-17T08:50:18.262Z,6.85
2019-03-17T08:52:47.592Z,7.37
2019-03-17T08:55:16.882Z,5.75
2019-03-17T08:57:46.163Z,2.80
2019-03-17T09:00:20.776Z,5.22
2019-03-17T09:02:50.395Z,5.35
2019-03-17T09:05:19.994Z,7.10
2019-03-17T09:07:49.324Z,4.95
2019-03-17T09:10:18.613Z,8.15
2019-03-17T09:12:48.073Z,6.50
2019-03-17T09:15:17.403Z,5.92
2019-03-17T09:17:46.686Z,5.95
2019-03-17T09:20:15.970Z,6.05
2019-03-17T09:22:45.298Z,9.98
2019-03-17T09:25:14.580Z,10.10
2019-03-17T09:27:43.867Z,7.72
2019-03-17T09:30:18.831Z,6.50
2019-03-17T09:32:48.116Z,8.48
2019-03-17T09:35:19.086Z,6.78
2019-03-17T09:37:48.411Z,7.95
2019-03-17T09:40:18.726Z,6.80
2019-03-17T09:42:48.054Z,3.92
2019-03-17T09:45:17.475Z,9.08
2019-03-17T09:47:46.760Z,5.97
2019-03-17T09:50:20.728Z,3.52
2019-03-17T09:52:50.039Z,6.97
2019-03-17T09:55:19.611Z,3.85
2019-03-17T09:57:48.955Z,4.70
2019-03-17T10:00:22.973Z,6.28
2019-03-17T10:02:52.327Z,4.35
2019-03-17T10:05:21.658Z,5.47
2019-03-17T10:07:50.960Z,4.60
2019-03-17T10:10:24.789Z,4.45
2019-03-17T10:12:54.088Z,4.78
2019-03-17T10:15:23.377Z,7.35
2019-03-17T10:17:52.665Z,5.92
2019-03-17T10:20:22.057Z,5.15
2019-03-17T10:22:51.338Z,7.47
2019-03-17T10:25:20.619Z,5.72
2019-03-17T10:27:49.950Z,7.58
2019-03-17T10:30:21.040Z,8.43
2019-03-17T10:32:50.396Z,9.65
2019-03-17T10:35:19.725Z,7.00
2019-03-17T10:37:49.026Z,9.25
2019-03-17T10:40:20.316Z,7.78
2019-03-17T10:42:49.983Z,8.55
2019-03-17T10:45:19.337Z,8.90
2019-03-17T10:47:48.621Z,8.55
2019-03-17T10:50:20.723Z,6.50
2019-03-17T10:52:50.015Z,6.78
2019-03-17T10:55:19.289Z,9.40
2019-03-17T10:57:48.626Z,9.75
2019-03-17T11:00:22.737Z,7.50
2019-03-17T11:02:52.013Z,7.22
2019-03-17T11:05:21.342Z,5.83
2019-03-17T11:07:50.627Z,6.50
2019-03-17T11:10:22.319Z,7.35
2019-03-17T11:12:51.647Z,6.08
2019-03-17T11:15:23.126Z,5.80
2019-03-17T11:17:52.405Z,6.97
2019-03-17T11:20:21.807Z,5.35
2019-03-17T11:22:51.107Z,6.55
2019-03-17T11:25:21.348Z,5.03
2019-03-17T11:27:50.686Z,5.05
2019-03-17T11:30:22.087Z,6.90
2019-03-17T11:32:51.374Z,5.08
2019-03-17T11:35:20.715Z,6.72
2019-03-17T11:37:50.013Z,5.92
2019-03-17T11:40:21.115Z,3.72
2019-03-17T11:42:50.580Z,6.37
2019-03-17T11:45:19.951Z,3.92
2019-03-17T11:47:49.515Z,4.05
2019-03-17T11:50:22.286Z,4.87
2019-03-17T11:52:52.012Z,6.83
2019-03-17T11:55:21.657Z,6.60
2019-03-17T11:57:51.084Z,5.83
2019-03-17T12:00:22.592Z,5.87
2019-03-17T12:02:51.960Z,4.08
2019-03-17T12:05:21.262Z,5.90
2019-03-17T12:07:50.594Z,3.87
2019-03-17T12:10:24.467Z,6.42
2019-03-17T12:12:53.765Z,4.25
2019-03-17T12:15:35.051Z,4.70
2019-03-17T12:18:04.577Z,2.47
2019-03-17T12:20:33.881Z,3.62
2019-03-17T12:23:03.155Z,2.50
2019-03-17T12:25:32.484Z,2.12
2019-03-17T12:28:01.768Z,5.10
2019-03-17T12:30:31.058Z,2.00
2019-03-17T12:33:00.396Z,2.45
2019-03-17T12:35:29.675Z,1.77
2019-03-17T12:37:58.954Z,3.20
2019-03-17T12:40:28.264Z,4.70
2019-03-17T12:42:57.552Z,6.25
2019-03-17T12:45:26.881Z,5.15
2019-03-17T12:47:56.179Z,6.17
2019-03-17T12:50:27.309Z,5.75
2019-03-17T12:52:56.604Z,5.20
2019-03-17T12:55:25.888Z,5.17
2019-03-17T12:57:55.225Z,5.30
2019-03-17T13:00:26.918Z,6.87
2019-03-17T13:02:56.328Z,7.40
2019-03-17T13:05:25.782Z,6.90
2019-03-17T13:07:55.282Z,5.70
2019-03-17T13:10:24.926Z,5.08
2019-03-17T13:12:54.204Z,3.95
2019-03-17T13:15:23.485Z,5.37
2019-03-17T13:17:52.805Z,5.83
2019-03-17T13:20:22.649Z,4.90
2019-03-17T13:22:51.920Z,8.13
2019-03-17T13:25:21.542Z,8.28
2019-03-17T13:27:50.830Z,4.92
2019-03-17T13:30:20.479Z,6.53
2019-03-17T13:32:49.808Z,8.58
2019-03-17T13:35:19.097Z,7.17
2019-03-17T13:37:48.374Z,8.63
2019-03-17T13:40:28.730Z,5.28
2019-03-17T13:42:51.157Z,5.47
2019-03-17T13:45:20.757Z,4.72
2019-03-17T13:47:52.853Z,4.70
2019-03-17T13:50:23.413Z,5.53
2019-03-17T13:52:52.698Z,6.35
2019-03-17T13:55:22.281Z,5.90
2019-03-17T13:57:56.541Z,5.35
2019-03-17T14:00:25.829Z,4.65
2019-03-17T14:02:55.151Z,5.15
2019-03-17T14:05:24.502Z,3.10
2019-03-17T14:07:53.793Z,3.92
2019-03-17T14:10:23.190Z,2.62
2019-03-17T14:12:52.783Z,3.40
2019-03-17T14:15:22.066Z,1.60
2019-03-17T14:17:51.420Z,2.42
2019-03-17T14:20:22.314Z,2.77
2019-03-17T14:22:51.653Z,3.83
2019-03-17T14:25:37.006Z,2.98
2019-03-17T14:28:06.286Z,3.95
2019-03-17T14:30:35.661Z,4.20
2019-03-17T14:33:04.938Z,2.65
2019-03-17T14:35:34.510Z,4.62
2019-03-17T14:38:03.936Z,3.58
2019-03-17T14:40:33.278Z,5.62
2019-03-17T14:43:02.585Z,6.83
2019-03-17T14:45:31.849Z,4.42
2019-03-17T14:48:01.190Z,4.55
2019-03-17T14:50:30.478Z,4.97
2019-03-17T14:53:00.963Z,4.35
2019-03-17T14:55:30.633Z,4.85
2019-03-17T14:57:59.935Z,5.05
2019-03-17T15:00:29.450Z,2.80
2019-03-17T15:02:58.777Z,3.52
2019-03-17T15:05:28.146Z,4.12
2019-03-17T15:07:57.421Z,4.50
2019-03-17T15:10:29.644Z,4.78
2019-03-17T15:12:58.932Z,6.75
2019-03-17T15:15:28.214Z,4.10
2019-03-17T15:17:57.547Z,2.72
2019-03-17T15:20:28.538Z,5.12
2019-03-17T15:22:57.814Z,4.67
2019-03-17T15:25:27.283Z,5.42
2019-03-17T15:27:56.571Z,5.58
2019-03-17T15:30:27.854Z,3.95
2019-03-17T15:32:57.520Z,4.90
2019-03-17T15:35:27.135Z,4.08
2019-03-17T15:37:56.432Z,4.28
2019-03-17T15:40:25.750Z,5.25
2019-03-17T15:42:55.043Z,4.87
2019-03-17T15:45:25.426Z,4.55
2019-03-17T15:47:55.070Z,6.28
2019-03-17T15:50:29.427Z,6.37
2019-03-17T15:52:58.705Z,7.65
2019-03-17T15:55:28.034Z,11.90
2019-03-17T15:57:57.328Z,5.85
2019-03-17T16:00:27.319Z,5.05
2019-03-17T16:02:56.814Z,4.15
2019-03-17T16:05:26.092Z,6.78
2019-03-17T16:07:55.377Z,5.42
2019-03-17T16:10:34.011Z,4.58
2019-03-17T16:13:03.315Z,5.12
2019-03-17T16:15:32.590Z,5.40
2019-03-17T16:18:01.932Z,4.85
2019-03-17T16:20:31.222Z,4.53
2019-03-17T16:23:00.499Z,3.62
2019-03-17T16:25:35.327Z,4.65
2019-03-17T16:28:05.255Z,5.42
2019-03-17T16:30:35.303Z,4.62
2019-03-17T16:33:05.057Z,5.37
2019-03-17T16:35:34.604Z,4.75
2019-03-17T16:38:03.956Z,5.60
2019-03-17T16:40:35.696Z,5.50
2019-03-17T16:43:06.219Z,5.55
2019-03-17T16:45:35.522Z,4.97
2019-03-17T16:48:07.906Z,6.75
2019-03-17T16:50:37.186Z,6.70
2019-03-17T16:53:06.479Z,5.20
2019-03-17T16:55:35.803Z,7.67
2019-03-17T16:58:05.556Z,5.50
2019-03-17T17:00:34.839Z,5.28
2019-03-17T17:03:04.179Z,7.22
2019-03-17T17:05:35.099Z,5.10
2019-03-17T17:08:04.685Z,3.98
2019-03-17T17:10:33.949Z,6.03
2019-03-17T17:13:03.288Z,7.65
2019-03-17T17:15:34.827Z,7.35
2019-03-17T17:18:04.370Z,5.97
2019-03-17T17:20:38.931Z,5.45
2019-03-17T17:23:08.501Z,4.05
2019-03-17T17:25:37.829Z,5.58
2019-03-17T17:28:07.107Z,6.97
2019-03-17T17:30:36.714Z,5.12
2019-03-17T17:33:06.112Z,4.95
2019-03-17T17:35:35.398Z,6.70
2019-03-17T17:38:04.679Z,5.85
2019-03-17T17:40:34.029Z,5.92
2019-03-17T17:43:03.309Z,6.20
2019-03-17T17:45:32.919Z,5.05
2019-03-17T17:48:02.655Z,4.62
2019-03-17T17:50:33.348Z,4.72
2019-03-17T17:53:02.629Z,5.08
2019-03-17T17:55:31.955Z,3.30
2019-03-17T17:58:01.243Z,2.80
2019-03-17T18:00:41.208Z,5.72
2019-03-17T18:03:13.299Z,1.35
2019-03-17T18:05:42.587Z,2.15
2019-03-17T18:08:12.185Z,4.25
2019-03-17T18:10:41.793Z,3.00
2019-03-17T18:13:11.085Z,3.58
2019-03-17T18:15:40.422Z,2.55
2019-03-17T18:18:09.708Z,3.60
2019-03-17T18:20:39.304Z,4.42
2019-03-17T18:23:17.904Z,6.45
2019-03-17T18:25:39.721Z,6.92
2019-03-17T18:28:09.002Z,4.47
2019-03-17T18:30:38.651Z,6.92
2019-03-17T18:33:07.940Z,7.92
2019-03-17T18:35:37.212Z,6.83
2019-03-17T18:38:06.580Z,6.00
2019-03-17T18:40:35.829Z,4.33
2019-03-17T18:43:05.116Z,3.52
2019-03-17T18:45:34.608Z,6.28
2019-03-17T18:48:03.966Z,3.92
2019-03-17T18:50:33.253Z,2.83
2019-03-17T18:53:02.582Z,5.47
2019-03-17T18:55:31.857Z,2.25
2019-03-17T18:58:01.137Z,2.98
2019-03-17T19:00:30.466Z,3.95
2019-03-17T19:02:59.766Z,1.60
2019-03-17T19:05:29.058Z,4.17
2019-03-17T19:07:58.386Z,2.30
2019-03-17T19:10:27.747Z,4.25
2019-03-17T19:12:57.029Z,4.58
2019-03-17T19:15:26.356Z,4.87
2019-03-17T19:17:55.979Z,5.92
2019-03-17T19:20:25.591Z,3.05
2019-03-17T19:22:55.187Z,4.00
2019-03-17T19:25:27.473Z,4.72
2019-03-17T19:27:56.731Z,4.72
2019-03-17T19:30:26.071Z,10.58
2019-03-17T19:32:55.660Z,3.67
2019-03-17T19:35:25.023Z,3.40
2019-03-17T19:37:54.349Z,4.53
2019-03-17T19:40:25.538Z,3.52
2019-03-17T19:42:59.286Z,3.08
2019-03-17T19:45:25.871Z,3.45
2019-03-17T19:47:55.161Z,4.92
2019-03-17T19:50:24.508Z,4.62
2019-03-17T19:52:53.833Z,6.97
2019-03-17T19:55:23.116Z,4.70
2019-03-17T19:57:52.395Z,3.35
2019-03-17T20:00:23.063Z,4.25
2019-03-17T20:02:52.335Z,8.13
2019-03-17T20:05:22.029Z,4.15
2019-03-17T20:07:51.319Z,2.98
2019-03-17T20:10:34.955Z,3.10
2019-03-17T20:13:11.580Z,4.65
2019-03-17T20:15:35.782Z,4.03
2019-03-17T20:18:05.063Z,2.22
2019-03-17T20:20:34.380Z,3.77
2019-03-17T20:23:03.661Z,3.60
2019-03-17T20:25:33.182Z,4.40
2019-03-17T20:28:02.801Z,5.92
2019-03-17T20:30:32.071Z,2.45
2019-03-17T20:33:01.423Z,2.95
2019-03-17T20:35:30.742Z,4.05
2019-03-17T20:38:00.028Z,3.02
2019-03-17T20:40:29.317Z,3.12
2019-03-17T20:42:58.899Z,5.58
2019-03-17T20:45:28.191Z,2.27
2019-03-17T20:47:57.837Z,7.67
2019-03-17T20:50:27.152Z,5.58
2019-03-17T20:52:56.425Z,2.47
2019-03-17T20:55:25.712Z,2.27
2019-03-17T20:57:55.039Z,3.15
2019-03-17T21:00:24.390Z,3.87
2019-03-17T21:02:53.671Z,3.55
2019-03-17T21:05:23.003Z,4.22
2019-03-17T21:07:52.327Z,5.70
2019-03-17T21:10:21.590Z,4.78
2019-03-17T21:12:51.153Z,4.05
2019-03-17T21:15:21.702Z,3.52
2019-03-17T21:17:51.378Z,3.30
2019-03-17T21:20:23.452Z,3.45
2019-03-17T21:22:52.735Z,5.65
2019-03-17T21:25:22.028Z,3.20
2019-03-17T21:27:51.350Z,3.98
2019-03-17T21:30:26.649Z,4.78
2019-03-17T21:32:55.934Z,6.08
2019-03-17T21:35:25.904Z,4.50
2019-03-17T21:37:55.180Z,4.10
2019-03-17T21:40:24.471Z,6.22
2019-03-17T21:42:53.805Z,7.87
2019-03-17T21:45:23.099Z,4.80
2019-03-17T21:47:52.385Z,8.48
2019-03-17T21:50:22.212Z,10.72
2019-03-17T21:52:51.466Z,3.67
2019-03-17T21:55:20.757Z,5.78
2019-03-17T21:57:50.083Z,4.87
2019-03-17T22:00:20.792Z,5.62
2019-03-17T22:02:50.125Z,4.08
2019-03-17T22:05:19.448Z,5.55
2019-03-17T22:07:50.895Z,4.62
2019-03-17T22:10:21.810Z,6.28
2019-03-17T22:12:51.153Z,5.90
2019-03-17T22:15:20.437Z,5.72
2019-03-17T22:17:52.395Z,6.25
2019-03-17T22:20:21.719Z,5.60
2019-03-17T22:22:50.997Z,5.42
2019-03-17T22:25:20.581Z,6.03
2019-03-17T22:27:49.907Z,5.15
2019-03-17T22:30:21.007Z,5.47
2019-03-17T22:32:50.304Z,6.90
2019-03-17T22:35:19.706Z,4.80
2019-03-17T22:37:48.980Z,5.65
2019-03-17T22:40:19.992Z,6.42
2019-03-17T22:42:49.361Z,6.67
2019-03-17T22:45:18.645Z,6.03
2019-03-17T22:47:47.924Z,6.92
2019-03-17T22:50:19.230Z,5.72
2019-03-17T22:52:48.647Z,5.28
2019-03-17T22:55:17.938Z,6.78
2019-03-17T22:57:47.275Z,4.70
2019-03-17T23:00:21.842Z,2.85
2019-03-17T23:02:51.131Z,5.40
2019-03-17T23:05:20.463Z,5.08
2019-03-17T23:07:49.741Z,4.62
2019-03-17T23:10:19.028Z,3.80
2019-03-17T23:12:48.356Z,5.20
2019-03-17T23:15:17.643Z,5.12
2019-03-17T23:17:47.248Z,4.67
2019-03-17T23:20:17.785Z,4.22
2019-03-17T23:22:47.379Z,5.30
2019-03-17T23:25:16.659Z,4.37
2019-03-17T23:27:45.989Z,6.22
2019-03-17T23:30:20.389Z,5.65
2019-03-17T23:32:52.502Z,5.25
2019-03-17T23:35:21.823Z,3.58
2019-03-17T23:37:51.105Z,4.75
2019-03-17T23:40:20.389Z,4.05
2019-03-17T23:42:49.711Z,4.25
2019-03-17T23:45:19.274Z,4.67
2019-03-17T23:47:48.551Z,4.58
2019-03-17T23:50:17.953Z,4.50
2019-03-17T23:52:47.495Z,4.60
2019-03-17T23:55:16.796Z,5.20
2019-03-17T23:57:46.123Z,5.62
